createdAt,value
2018-03-27T00:00:20.950Z,0.00
2018-03-27T00:01:20.870Z,0.00
2018-03-27T00:02:20.789Z,0.00
2018-03-27T00:03:20.711Z,0.00
2018-03-27T00:04:20.624Z,0.00
2018-03-27T00:05:20.576Z,0.00
2018-03-27T00:06:20.461Z,0.00
2018-03-27T00:07:20.379Z,0.00
2018-03-27T00:08:20.312Z,0.00
2018-03-27T00:09:20.246Z,0.00
2018-03-27T00:10:20.134Z,0.00
2018-03-27T00:11:20.054Z,0.00
2018-03-27T00:12:19.972Z,0.00
2018-03-27T00:13:19.891Z,0.00
2018-03-27T00:14:19.809Z,0.00
2018-03-27T00:15:19.726Z,0.00
2018-03-27T00:16:19.651Z,0.00
2018-03-27T00:17:19.567Z,0.00
2018-03-27T00:18:19.483Z,0.00
2018-03-27T00:19:19.397Z,0.00
2018-03-27T00:20:19.320Z,0.00
2018-03-27T00:21:19.243Z,0.00
2018-03-27T00:22:19.156Z,0.00
2018-03-27T00:23:19.073Z,0.00
2018-03-27T00:24:18.994Z,0.00
2018-03-27T00:25:18.909Z,0.00
2018-03-27T00:26:18.829Z,0.00
2018-03-27T00:27:18.744Z,0.00
2018-03-27T00:28:18.674Z,0.00
2018-03-27T00:29:18.646Z,0.00
2018-03-27T00:30:18.500Z,0.00
2018-03-27T00:31:18.424Z,0.00
2018-03-27T00:32:18.338Z,0.00
2018-03-27T00:33:18.256Z,0.00
2018-03-27T00:34:18.172Z,0.00
2018-03-27T00:35:18.093Z,0.00
2018-03-27T00:36:18.010Z,0.00
2018-03-27T00:37:17.928Z,0.00
2018-03-27T00:38:17.848Z,0.00
2018-03-27T00:39:17.764Z,0.00
2018-03-27T00:40:17.683Z,0.00
2018-03-27T00:41:17.600Z,0.00
2018-03-27T00:42:17.541Z,0.00
2018-03-27T00:43:17.448Z,0.00
2018-03-27T00:44:17.357Z,0.00
2018-03-27T00:45:17.275Z,0.00
2018-03-27T00:46:17.192Z,0.00
2018-03-27T00:47:17.108Z,0.00
2018-03-27T00:48:17.030Z,0.00
2018-03-27T00:49:16.946Z,0.00
2018-03-27T00:50:16.864Z,0.00
2018-03-27T00:51:16.786Z,0.00
2018-03-27T00:52:16.698Z,0.00
2018-03-27T00:53:16.624Z,0.00
2018-03-27T00:54:16.536Z,0.00
2018-03-27T00:55:16.454Z,0.00
2018-03-27T00:56:16.475Z,0.00
2018-03-27T00:57:16.292Z,0.00
2018-03-27T00:58:16.221Z,0.00
2018-03-27T00:59:16.130Z,0.00
2018-03-27T01:00:16.047Z,0.00
2018-03-27T01:01:15.989Z,0.00
2018-03-27T01:02:15.884Z,0.00
2018-03-27T01:03:15.801Z,0.00
2018-03-27T01:04:15.719Z,0.00
2018-03-27T01:05:15.639Z,0.00
2018-03-27T01:06:15.564Z,0.00
2018-03-27T01:07:15.483Z,0.00
2018-03-27T01:08:15.395Z,0.00
2018-03-27T01:09:15.317Z,0.00
2018-03-27T01:10:15.229Z,0.00
2018-03-27T01:11:15.147Z,0.00
2018-03-27T01:12:15.063Z,0.00
2018-03-27T01:13:14.986Z,0.00
2018-03-27T01:14:14.900Z,0.00
2018-03-27T01:15:14.821Z,0.00
2018-03-27T01:16:14.738Z,0.00
2018-03-27T01:17:14.685Z,0.00
2018-03-27T01:18:14.577Z,0.00
2018-03-27T01:19:14.491Z,0.00
2018-03-27T01:20:14.410Z,0.00
2018-03-27T01:21:14.330Z,0.00
2018-03-27T01:22:14.246Z,0.00
2018-03-27T01:23:14.161Z,0.00
2018-03-27T01:24:14.080Z,0.00
2018-03-27T01:25:13.999Z,0.00
2018-03-27T01:26:13.920Z,0.00
2018-03-27T01:27:13.835Z,0.00
2018-03-27T01:28:13.758Z,0.00
2018-03-27T01:29:13.671Z,0.00
2018-03-27T01:30:13.597Z,0.00
2018-03-27T01:31:13.541Z,0.00
2018-03-27T01:32:13.426Z,0.00
2018-03-27T01:33:13.357Z,0.00
2018-03-27T01:34:13.264Z,0.00
2018-03-27T01:35:13.186Z,0.00
2018-03-27T01:36:13.099Z,0.00
2018-03-27T01:37:13.018Z,0.00
2018-03-27T01:38:12.978Z,0.00
2018-03-27T01:39:12.857Z,0.00
2018-03-27T01:40:12.984Z,0.00
2018-03-27T01:41:12.690Z,0.00
2018-03-27T01:42:12.612Z,0.00
2018-03-27T01:43:12.529Z,0.00
2018-03-27T01:44:12.442Z,0.00
2018-03-27T01:45:12.365Z,0.00
2018-03-27T01:46:12.282Z,0.00
2018-03-27T01:47:12.198Z,0.00
2018-03-27T01:48:12.118Z,0.00
2018-03-27T01:49:12.035Z,0.00
2018-03-27T01:50:11.953Z,0.00
2018-03-27T01:51:11.870Z,0.00
2018-03-27T01:52:11.790Z,0.00
2018-03-27T01:53:11.709Z,0.00
2018-03-27T01:54:11.626Z,0.00
2018-03-27T01:55:11.543Z,0.00
2018-03-27T01:56:11.464Z,0.00
2018-03-27T01:57:11.379Z,0.00
2018-03-27T01:58:11.297Z,0.00
2018-03-27T01:59:11.217Z,0.00
2018-03-27T02:00:11.134Z,0.00
2018-03-27T02:01:11.053Z,0.00
2018-03-27T02:02:10.968Z,0.00
2018-03-27T02:03:10.889Z,0.00
2018-03-27T02:04:10.807Z,0.00
2018-03-27T02:05:10.755Z,0.00
2018-03-27T02:06:10.643Z,0.00
2018-03-27T02:07:10.561Z,0.00
2018-03-27T02:08:10.479Z,0.00
2018-03-27T02:09:10.396Z,0.00
2018-03-27T02:10:10.315Z,0.00
2018-03-27T02:11:10.238Z,0.00
2018-03-27T02:12:10.153Z,0.00
2018-03-27T02:13:10.076Z,0.00
2018-03-27T02:14:09.989Z,0.00
2018-03-27T02:15:09.905Z,0.00
2018-03-27T02:16:09.828Z,0.00
2018-03-27T02:17:09.741Z,0.00
2018-03-27T02:18:09.658Z,0.00
2018-03-27T02:19:09.576Z,0.00
2018-03-27T02:20:09.505Z,0.00
2018-03-27T02:21:09.425Z,0.00
2018-03-27T02:22:09.330Z,0.00
2018-03-27T02:23:09.249Z,0.00
2018-03-27T02:24:09.168Z,0.00
2018-03-27T02:25:09.100Z,0.00
2018-03-27T02:26:09.002Z,0.00
2018-03-27T02:27:08.969Z,0.00
2018-03-27T02:28:08.841Z,0.00
2018-03-27T02:29:08.760Z,0.00
2018-03-27T02:30:08.676Z,0.00
2018-03-27T02:31:08.593Z,0.00
2018-03-27T02:32:08.512Z,0.00
2018-03-27T02:33:08.430Z,0.00
2018-03-27T02:34:08.350Z,0.00
2018-03-27T02:35:08.264Z,0.00
2018-03-27T02:36:08.183Z,0.00
2018-03-27T02:37:08.102Z,0.00
2018-03-27T02:38:08.019Z,0.00
2018-03-27T02:39:07.933Z,0.00
2018-03-27T02:40:07.874Z,0.00
2018-03-27T02:41:07.782Z,0.00
2018-03-27T02:42:07.690Z,0.00
2018-03-27T02:43:07.612Z,0.00
2018-03-27T02:44:07.536Z,0.00
2018-03-27T02:45:07.443Z,0.00
2018-03-27T02:46:07.397Z,0.00
2018-03-27T02:47:07.280Z,0.00
2018-03-27T02:48:07.196Z,0.00
2018-03-27T02:49:07.119Z,0.00
2018-03-27T02:50:07.050Z,0.00
2018-03-27T02:51:06.956Z,0.00
2018-03-27T02:52:06.866Z,0.00
2018-03-27T02:53:06.790Z,0.00
2018-03-27T02:54:06.712Z,0.00
2018-03-27T02:55:06.622Z,0.00
2018-03-27T02:56:06.541Z,0.00
2018-03-27T02:57:06.456Z,0.00
2018-03-27T02:58:06.376Z,0.00
2018-03-27T02:59:06.293Z,0.00
2018-03-27T03:00:06.208Z,0.00
2018-03-27T03:01:06.130Z,0.00
2018-03-27T03:02:06.043Z,0.00
2018-03-27T03:03:05.965Z,0.00
2018-03-27T03:04:05.890Z,0.00
2018-03-27T03:05:05.831Z,0.00
2018-03-27T03:06:05.717Z,0.00
2018-03-27T03:07:05.634Z,0.00
2018-03-27T03:08:05.553Z,0.00
2018-03-27T03:09:05.468Z,0.00
2018-03-27T03:10:05.387Z,0.00
2018-03-27T03:11:05.307Z,0.00
2018-03-27T03:12:05.225Z,0.00
2018-03-27T03:13:05.169Z,0.00
2018-03-27T03:14:05.062Z,0.00
2018-03-27T03:15:04.975Z,0.00
2018-03-27T03:16:04.894Z,0.00
2018-03-27T03:17:04.812Z,0.00
2018-03-27T03:18:04.731Z,0.00
2018-03-27T03:19:04.684Z,0.00
2018-03-27T03:20:04.563Z,0.00
2018-03-27T03:21:04.481Z,0.00
2018-03-27T03:22:04.400Z,0.00
2018-03-27T03:23:04.314Z,0.00
2018-03-27T03:24:04.330Z,0.00
2018-03-27T03:25:04.155Z,0.00
2018-03-27T03:26:04.076Z,0.00
2018-03-27T03:27:03.993Z,0.00
2018-03-27T03:28:03.907Z,0.00
2018-03-27T03:29:03.839Z,0.00
2018-03-27T03:30:03.743Z,0.00
2018-03-27T03:31:03.660Z,0.00
2018-03-27T03:32:03.574Z,0.00
2018-03-27T03:33:03.493Z,0.00
2018-03-27T03:34:03.410Z,0.00
2018-03-27T03:35:03.333Z,0.00
2018-03-27T03:36:03.255Z,0.00
2018-03-27T03:37:03.165Z,0.00
2018-03-27T03:38:03.082Z,0.00
2018-03-27T03:39:03.004Z,0.00
2018-03-27T03:40:02.918Z,0.00
2018-03-27T03:41:02.835Z,0.00
2018-03-27T03:42:02.754Z,0.00
2018-03-27T03:43:02.767Z,0.00
2018-03-27T03:44:02.585Z,0.00
2018-03-27T03:45:02.507Z,0.00
2018-03-27T03:46:02.423Z,0.00
2018-03-27T03:47:02.339Z,0.00
2018-03-27T03:48:02.264Z,0.00
2018-03-27T03:49:02.179Z,0.00
2018-03-27T03:50:02.094Z,0.00
2018-03-27T03:51:02.018Z,0.00
2018-03-27T03:52:01.934Z,0.00
2018-03-27T03:53:01.877Z,0.00
2018-03-27T03:54:01.765Z,0.00
2018-03-27T03:55:01.688Z,0.00
2018-03-27T03:56:01.605Z,0.00
2018-03-27T03:57:01.521Z,0.00
2018-03-27T03:58:01.433Z,0.00
2018-03-27T03:59:01.354Z,0.00
2018-03-27T04:00:01.273Z,0.00
2018-03-27T04:01:01.188Z,0.00
2018-03-27T04:02:01.104Z,0.00
2018-03-27T04:03:01.024Z,0.00
2018-03-27T04:04:00.949Z,0.00
2018-03-27T04:05:00.873Z,0.00
2018-03-27T04:06:00.774Z,0.00
2018-03-27T04:07:00.693Z,0.00
2018-03-27T04:08:00.611Z,0.00
2018-03-27T04:09:00.531Z,0.00
2018-03-27T04:10:00.445Z,0.00
2018-03-27T04:11:00.364Z,0.00
2018-03-27T04:12:00.292Z,0.00
2018-03-27T04:13:00.206Z,0.00
2018-03-27T04:14:00.145Z,0.00
2018-03-27T04:15:00.035Z,0.00
2018-03-27T04:15:59.957Z,0.00
2018-03-27T04:16:59.872Z,0.00
2018-03-27T04:17:59.789Z,0.00
2018-03-27T04:18:59.704Z,0.00
2018-03-27T04:19:59.628Z,0.00
2018-03-27T04:20:59.593Z,0.00
2018-03-27T04:21:59.458Z,0.00
2018-03-27T04:22:59.379Z,0.00
2018-03-27T04:23:59.295Z,0.00
2018-03-27T04:24:59.218Z,0.00
2018-03-27T04:25:59.130Z,0.00
2018-03-27T04:26:59.055Z,0.00
2018-03-27T04:27:58.970Z,0.00
2018-03-27T04:28:58.884Z,0.00
2018-03-27T04:29:58.803Z,0.00
2018-03-27T04:30:58.716Z,0.00
2018-03-27T04:31:58.637Z,0.00
2018-03-27T04:32:58.555Z,0.00
2018-03-27T04:33:58.472Z,0.00
2018-03-27T04:34:58.392Z,0.00
2018-03-27T04:35:58.306Z,0.00
2018-03-27T04:36:58.225Z,0.00
2018-03-27T04:37:58.145Z,0.00
2018-03-27T04:38:58.062Z,0.00
2018-03-27T04:39:57.982Z,0.00
2018-03-27T04:40:57.896Z,0.00
2018-03-27T04:41:57.814Z,0.00
2018-03-27T04:42:57.733Z,0.00
2018-03-27T04:43:57.653Z,0.00
2018-03-27T04:44:57.571Z,0.00
2018-03-27T04:45:57.486Z,0.00
2018-03-27T04:46:57.408Z,0.00
2018-03-27T04:47:57.376Z,0.00
2018-03-27T04:48:57.241Z,0.00
2018-03-27T04:49:57.158Z,4.00
2018-03-27T04:50:57.097Z,4.00
2018-03-27T04:51:56.994Z,0.00
2018-03-27T04:52:56.912Z,4.00
2018-03-27T04:53:56.827Z,4.00
2018-03-27T04:54:56.746Z,8.00
2018-03-27T04:55:56.663Z,8.00
2018-03-27T04:56:56.588Z,8.00
2018-03-27T04:57:56.498Z,8.00
2018-03-27T04:58:56.424Z,8.00
2018-03-27T04:59:56.340Z,12.00
2018-03-27T05:00:56.254Z,12.00
2018-03-27T05:01:56.173Z,12.00
2018-03-27T05:02:56.090Z,12.00
2018-03-27T05:03:56.005Z,12.00
2018-03-27T05:04:55.925Z,12.00
2018-03-27T05:05:55.849Z,20.00
2018-03-27T05:06:55.759Z,20.00
2018-03-27T05:07:55.677Z,20.00
2018-03-27T05:08:55.595Z,20.00
2018-03-27T05:09:55.514Z,24.00
2018-03-27T05:10:55.430Z,24.00
2018-03-27T05:11:55.348Z,28.00
2018-03-27T05:12:55.269Z,28.00
2018-03-27T05:13:55.185Z,32.00
2018-03-27T05:14:55.112Z,36.00
2018-03-27T05:15:55.019Z,44.00
2018-03-27T05:16:54.938Z,52.00
2018-03-27T05:17:54.859Z,68.00
2018-03-27T05:18:54.770Z,76.00
2018-03-27T05:19:54.694Z,80.00
2018-03-27T05:20:54.607Z,84.00
2018-03-27T05:21:54.526Z,84.00
2018-03-27T05:22:54.444Z,80.00
2018-03-27T05:23:54.363Z,80.00
2018-03-27T05:24:54.292Z,76.00
2018-03-27T05:25:54.214Z,76.00
2018-03-27T05:26:54.114Z,80.00
2018-03-27T05:27:54.031Z,84.00
2018-03-27T05:28:54.040Z,84.00
2018-03-27T05:29:53.866Z,84.00
2018-03-27T05:30:53.786Z,84.00
2018-03-27T05:31:53.970Z,92.00
2018-03-27T05:32:53.642Z,96.00
2018-03-27T05:33:53.537Z,96.00
2018-03-27T05:34:53.457Z,96.00
2018-03-27T05:35:53.376Z,108.00
2018-03-27T05:36:53.366Z,116.00
2018-03-27T05:37:53.209Z,120.00
2018-03-27T05:38:53.128Z,128.00
2018-03-27T05:39:53.046Z,132.00
2018-03-27T05:40:52.962Z,136.00
2018-03-27T05:41:52.878Z,140.00
2018-03-27T05:42:52.797Z,148.00
2018-03-27T05:43:52.714Z,160.00
2018-03-27T05:44:52.635Z,180.00
2018-03-27T05:45:52.548Z,200.00
2018-03-27T05:46:52.464Z,220.00
2018-03-27T05:47:52.383Z,228.00
2018-03-27T05:48:52.302Z,224.00
2018-03-27T05:49:52.220Z,216.00
2018-03-27T05:50:52.136Z,212.00
2018-03-27T05:51:52.078Z,212.00
2018-03-27T05:52:51.971Z,216.00
2018-03-27T05:53:51.886Z,220.00
2018-03-27T05:54:51.804Z,220.00
2018-03-27T05:55:51.779Z,228.00
2018-03-27T05:56:51.639Z,236.00
2018-03-27T05:57:51.559Z,248.00
2018-03-27T05:58:51.473Z,252.00
2018-03-27T05:59:51.390Z,264.00
2018-03-27T06:00:51.325Z,276.00
2018-03-27T06:01:51.224Z,280.00
2018-03-27T06:02:51.145Z,292.00
2018-03-27T06:03:51.062Z,304.00
2018-03-27T06:04:50.977Z,320.00
2018-03-27T06:05:50.898Z,332.00
2018-03-27T06:06:50.817Z,332.00
2018-03-27T06:07:50.736Z,328.00
2018-03-27T06:08:50.653Z,348.00
2018-03-27T06:09:50.565Z,352.00
2018-03-27T06:10:50.481Z,348.00
2018-03-27T06:11:50.402Z,340.00
2018-03-27T06:12:50.326Z,332.00
2018-03-27T06:13:50.303Z,324.00
2018-03-27T06:14:50.158Z,312.00
2018-03-27T06:15:50.069Z,316.00
2018-03-27T06:16:49.989Z,332.00
2018-03-27T06:17:49.905Z,364.00
2018-03-27T06:18:49.823Z,412.00
2018-03-27T06:19:49.740Z,464.00
2018-03-27T06:20:49.670Z,492.00
2018-03-27T06:21:49.578Z,496.00
2018-03-27T06:22:49.524Z,496.00
2018-03-27T06:23:49.411Z,488.00
2018-03-27T06:24:49.329Z,484.00
2018-03-27T06:25:49.262Z,480.00
2018-03-27T06:26:49.166Z,484.00
2018-03-27T06:27:49.082Z,496.00
2018-03-27T06:28:49.013Z,500.00
2018-03-27T06:29:48.915Z,492.00
2018-03-27T06:30:48.836Z,484.00
2018-03-27T06:31:48.753Z,500.00
2018-03-27T06:32:48.672Z,532.00
2018-03-27T06:33:48.630Z,556.00
2018-03-27T06:34:48.509Z,572.00
2018-03-27T06:35:48.432Z,576.00
2018-03-27T06:36:48.340Z,628.00
2018-03-27T06:37:48.262Z,740.00
2018-03-27T06:38:48.176Z,860.00
2018-03-27T06:39:48.097Z,892.00
2018-03-27T06:40:48.014Z,840.00
2018-03-27T06:41:47.932Z,744.00
2018-03-27T06:42:47.855Z,680.00
2018-03-27T06:43:47.764Z,644.00
2018-03-27T06:44:47.682Z,640.00
2018-03-27T06:45:47.603Z,616.00
2018-03-27T06:46:47.574Z,560.00
2018-03-27T06:47:47.448Z,488.00
2018-03-27T06:48:47.356Z,448.00
2018-03-27T06:49:47.276Z,424.00
2018-03-27T06:50:47.191Z,440.00
2018-03-27T06:51:47.109Z,480.00
2018-03-27T06:52:47.057Z,544.00
2018-03-27T06:53:46.947Z,612.00
2018-03-27T06:54:46.868Z,684.00
2018-03-27T06:55:46.781Z,756.00
2018-03-27T06:56:46.698Z,868.00
2018-03-27T06:57:46.614Z,996.00
2018-03-27T06:58:46.536Z,1088.00
2018-03-27T06:59:46.453Z,1080.00
2018-03-27T07:00:46.370Z,1032.00
2018-03-27T07:01:46.289Z,952.00
2018-03-27T07:02:46.206Z,868.00
2018-03-27T07:03:46.136Z,776.00
2018-03-27T07:04:46.044Z,648.00
2018-03-27T07:05:45.967Z,676.00
2018-03-27T07:06:45.897Z,656.00
2018-03-27T07:07:45.817Z,556.00
2018-03-27T07:08:45.719Z,444.00
2018-03-27T07:09:45.650Z,368.00
2018-03-27T07:10:45.601Z,352.00
2018-03-27T07:11:45.465Z,348.00
2018-03-27T07:12:45.394Z,332.00
2018-03-27T07:13:45.337Z,348.00
2018-03-27T07:14:45.222Z,328.00
2018-03-27T07:15:45.152Z,316.00
2018-03-27T07:16:45.057Z,300.00
2018-03-27T07:17:45.003Z,332.00
2018-03-27T07:18:44.893Z,368.00
2018-03-27T07:19:44.836Z,376.00
2018-03-27T07:20:44.762Z,400.00
2018-03-27T07:21:44.643Z,424.00
2018-03-27T07:22:44.574Z,444.00
2018-03-27T07:23:44.487Z,464.00
2018-03-27T07:24:44.398Z,492.00
2018-03-27T07:25:44.315Z,492.00
2018-03-27T07:26:44.233Z,488.00
2018-03-27T07:27:44.150Z,492.00
2018-03-27T07:28:44.068Z,480.00
2018-03-27T07:29:43.986Z,476.00
2018-03-27T07:30:43.904Z,520.00
2018-03-27T07:31:43.822Z,580.00
2018-03-27T07:32:43.768Z,616.00
2018-03-27T07:33:43.655Z,640.00
2018-03-27T07:34:43.574Z,676.00
2018-03-27T07:35:43.490Z,708.00
2018-03-27T07:36:43.410Z,720.00
2018-03-27T07:37:43.321Z,724.00
2018-03-27T07:38:43.246Z,728.00
2018-03-27T07:39:43.184Z,716.00
2018-03-27T07:40:43.079Z,708.00
2018-03-27T07:41:42.991Z,704.00
2018-03-27T07:42:42.916Z,684.00
2018-03-27T07:43:42.829Z,672.00
2018-03-27T07:44:42.804Z,656.00
2018-03-27T07:45:42.677Z,656.00
2018-03-27T07:46:42.584Z,688.00
2018-03-27T07:47:42.498Z,724.00
2018-03-27T07:48:42.441Z,760.00
2018-03-27T07:49:42.331Z,808.00
2018-03-27T07:50:42.251Z,872.00
2018-03-27T07:51:42.167Z,908.00
2018-03-27T07:52:42.091Z,940.00
2018-03-27T07:53:42.030Z,956.00
2018-03-27T07:54:41.922Z,964.00
2018-03-27T07:55:41.837Z,1004.00
2018-03-27T07:56:41.755Z,1080.00
2018-03-27T07:57:42.445Z,1168.00
2018-03-27T07:58:41.590Z,1260.00
2018-03-27T07:59:41.508Z,1376.00
2018-03-27T08:00:41.425Z,1480.00
2018-03-27T08:01:41.340Z,1564.00
2018-03-27T08:02:41.264Z,1652.00
2018-03-27T08:03:41.196Z,1752.00
2018-03-27T08:04:41.096Z,1880.00
2018-03-27T08:05:41.014Z,1996.00
2018-03-27T08:06:40.930Z,2108.00
2018-03-27T08:07:40.847Z,2192.00
2018-03-27T08:08:40.766Z,2248.00
2018-03-27T08:09:40.680Z,2288.00
2018-03-27T08:10:40.599Z,2272.00
2018-03-27T08:11:40.516Z,2296.00
2018-03-27T08:12:40.436Z,2428.00
2018-03-27T08:13:40.353Z,2664.00
2018-03-27T08:14:40.268Z,2800.00
2018-03-27T08:15:40.186Z,2932.00
2018-03-27T08:16:40.105Z,2964.00
2018-03-27T08:17:40.021Z,2956.00
2018-03-27T08:18:39.940Z,3012.00
2018-03-27T08:19:39.854Z,3036.00
2018-03-27T08:20:39.772Z,3072.00
2018-03-27T08:21:39.691Z,2952.00
2018-03-27T08:22:39.609Z,2756.00
2018-03-27T08:23:39.549Z,2536.00
2018-03-27T08:24:39.443Z,2288.00
2018-03-27T08:25:39.361Z,2052.00
2018-03-27T08:26:39.282Z,1876.00
2018-03-27T08:27:39.198Z,1880.00
2018-03-27T08:28:39.132Z,1848.00
2018-03-27T08:29:39.070Z,1840.00
2018-03-27T08:30:38.953Z,1788.00
2018-03-27T08:31:38.883Z,1804.00
2018-03-27T08:32:38.786Z,1840.00
2018-03-27T08:33:38.706Z,1912.00
2018-03-27T08:34:40.991Z,1972.00
2018-03-27T08:35:38.576Z,2004.00
2018-03-27T08:36:38.460Z,1996.00
2018-03-27T08:37:38.377Z,1976.00
2018-03-27T08:38:38.298Z,1928.00
2018-03-27T08:39:38.214Z,1916.00
2018-03-27T08:40:38.134Z,1916.00
2018-03-27T08:41:38.052Z,1916.00
2018-03-27T08:42:37.969Z,1944.00
2018-03-27T08:43:37.899Z,1968.00
2018-03-27T08:44:37.885Z,2004.00
2018-03-27T08:45:37.723Z,2032.00
2018-03-27T08:46:37.645Z,2052.00
2018-03-27T08:47:37.605Z,2092.00
2018-03-27T08:48:37.502Z,2164.00
2018-03-27T08:49:37.398Z,2264.00
2018-03-27T08:50:37.316Z,2364.00
2018-03-27T08:51:37.235Z,2468.00
2018-03-27T08:52:37.158Z,2580.00
2018-03-27T08:53:37.082Z,2680.00
2018-03-27T08:54:36.993Z,2740.00
2018-03-27T08:55:36.920Z,2740.00
2018-03-27T08:56:36.828Z,2692.00
2018-03-27T08:57:36.749Z,2640.00
2018-03-27T08:58:36.668Z,2552.00
2018-03-27T08:59:36.586Z,2448.00
2018-03-27T09:00:36.538Z,2360.00
2018-03-27T09:01:36.421Z,2320.00
2018-03-27T09:02:36.341Z,2356.00
2018-03-27T09:03:36.322Z,2384.00
2018-03-27T09:04:36.179Z,2396.00
2018-03-27T09:05:36.106Z,2420.00
2018-03-27T09:06:36.017Z,2392.00
2018-03-27T09:07:35.935Z,2296.00
2018-03-27T09:08:35.853Z,2248.00
2018-03-27T09:09:35.772Z,2300.00
2018-03-27T09:10:35.696Z,2260.00
2018-03-27T09:11:35.610Z,2144.00
2018-03-27T09:12:35.533Z,2004.00
2018-03-27T09:13:35.462Z,1880.00
2018-03-27T09:14:35.368Z,1768.00
2018-03-27T09:15:35.289Z,1720.00
2018-03-27T09:16:35.205Z,1744.00
2018-03-27T09:17:35.123Z,1924.00
2018-03-27T09:18:35.043Z,2236.00
2018-03-27T09:19:34.964Z,2504.00
2018-03-27T09:20:34.960Z,2680.00
2018-03-27T09:21:34.800Z,2824.00
2018-03-27T09:22:34.721Z,2976.00
2018-03-27T09:23:34.641Z,3268.00
2018-03-27T09:24:34.565Z,3512.00
2018-03-27T09:25:34.479Z,3648.00
2018-03-27T09:26:34.399Z,3760.00
2018-03-27T09:27:34.321Z,3888.00
2018-03-27T09:28:34.283Z,4016.00
2018-03-27T09:29:34.157Z,4112.00
2018-03-27T09:30:34.107Z,4236.00
2018-03-27T09:31:34.006Z,4324.00
2018-03-27T09:32:33.916Z,4404.00
2018-03-27T09:33:33.831Z,4400.00
2018-03-27T09:34:33.756Z,4544.00
2018-03-27T09:35:33.675Z,4932.00
2018-03-27T09:36:33.591Z,5220.00
2018-03-27T09:37:33.511Z,5452.00
2018-03-27T09:38:33.433Z,5532.00
2018-03-27T09:39:33.349Z,5572.00
2018-03-27T09:40:33.269Z,5676.00
2018-03-27T09:41:33.188Z,5788.00
2018-03-27T09:42:33.109Z,5720.00
2018-03-27T09:43:33.029Z,5544.00
2018-03-27T09:44:32.953Z,5436.00
2018-03-27T09:45:32.927Z,5356.00
2018-03-27T09:46:32.787Z,5384.00
2018-03-27T09:47:32.706Z,5424.00
2018-03-27T09:48:32.626Z,5332.00
2018-03-27T09:49:32.545Z,5160.00
2018-03-27T09:52:14.971Z,5316.00
2018-03-27T09:53:14.837Z,5264.00
2018-03-27T09:55:18.648Z,5392.00
2018-03-27T09:56:18.577Z,5520.00
2018-03-27T09:58:22.424Z,5732.00
2018-03-27T09:59:22.293Z,5788.00
2018-03-27T10:01:26.100Z,5912.00
2018-03-27T10:02:26.017Z,6004.00
2018-03-27T10:04:29.889Z,6296.00
2018-03-27T10:05:29.752Z,6416.00
2018-03-27T10:07:22.504Z,6696.00
2018-03-27T10:08:22.419Z,6744.00
2018-03-27T10:10:26.294Z,6712.00
2018-03-27T10:11:26.158Z,6768.00
2018-03-27T10:12:26.098Z,6864.00
2018-03-27T10:13:25.995Z,6952.00
2018-03-27T10:14:25.927Z,7112.00
2018-03-27T10:15:25.834Z,7248.00
2018-03-27T10:16:25.755Z,7560.00
2018-03-27T10:17:25.681Z,7672.00
2018-03-27T10:18:25.597Z,7988.00
2018-03-27T10:19:25.517Z,8060.00
2018-03-27T10:20:25.463Z,7828.00
2018-03-27T10:21:25.358Z,7444.00
2018-03-27T10:22:25.285Z,8204.00
2018-03-27T10:23:25.226Z,8148.00
2018-03-27T10:24:25.134Z,8064.00
2018-03-27T10:25:25.052Z,8052.00
2018-03-27T10:26:24.976Z,7976.00
2018-03-27T10:27:24.992Z,7992.00
2018-03-27T10:28:24.802Z,7696.00
2018-03-27T10:29:24.761Z,7928.00
2018-03-27T10:30:24.700Z,8400.00
2018-03-27T10:31:24.599Z,8704.00
2018-03-27T10:32:24.669Z,8716.00
2018-03-27T10:33:24.427Z,8392.00
2018-03-27T10:34:24.344Z,8492.00
2018-03-27T10:35:24.279Z,7820.00
2018-03-27T10:36:24.177Z,8432.00
2018-03-27T10:37:24.149Z,8464.00
2018-03-27T10:38:24.025Z,8716.00
2018-03-27T10:39:23.932Z,8720.00
2018-03-27T10:40:23.875Z,8468.00
2018-03-27T10:41:23.798Z,7684.00
2018-03-27T10:42:23.720Z,7304.00
2018-03-27T10:43:23.623Z,7300.00
2018-03-27T10:44:23.538Z,6996.00
2018-03-27T10:45:23.513Z,8652.00
2018-03-27T10:46:23.381Z,8952.00
2018-03-27T10:47:23.302Z,9140.00
2018-03-27T10:48:23.223Z,9540.00
2018-03-27T10:49:23.147Z,9752.00
2018-03-27T10:50:23.071Z,9912.00
2018-03-27T10:51:22.988Z,10032.00
2018-03-27T10:52:22.908Z,9992.00
2018-03-27T10:53:22.833Z,10196.00
2018-03-27T10:54:22.755Z,10148.00
2018-03-27T10:55:22.727Z,10144.00
2018-03-27T10:56:22.600Z,10044.00
2018-03-27T10:57:22.519Z,9976.00
2018-03-27T10:58:22.442Z,9812.00
2018-03-27T10:59:22.361Z,9864.00
2018-03-27T11:00:22.282Z,9980.00
2018-03-27T11:01:22.206Z,10016.00
2018-03-27T11:02:22.125Z,9928.00
2018-03-27T11:03:22.061Z,9824.00
2018-03-27T11:04:21.971Z,9740.00
2018-03-27T11:05:21.891Z,9788.00
2018-03-27T11:06:21.827Z,9856.00
2018-03-27T11:07:21.736Z,10020.00
2018-03-27T11:08:21.657Z,9932.00
2018-03-27T11:09:21.582Z,10020.00
2018-03-27T11:10:21.501Z,10164.00
2018-03-27T11:11:21.424Z,10348.00
2018-03-27T11:12:21.343Z,10512.00
2018-03-27T11:13:21.268Z,10596.00
2018-03-27T11:14:21.189Z,10668.00
2018-03-27T11:15:21.115Z,10700.00
2018-03-27T11:16:21.032Z,10868.00
2018-03-27T11:17:20.956Z,11060.00
2018-03-27T11:18:20.880Z,10792.00
2018-03-27T11:19:20.799Z,10872.00
2018-03-27T11:20:20.721Z,11044.00
2018-03-27T11:21:20.645Z,11136.00
2018-03-27T11:22:20.566Z,11256.00
2018-03-27T11:23:20.498Z,11524.00
2018-03-27T11:24:20.410Z,11908.00
2018-03-27T11:25:20.333Z,12024.00
2018-03-27T11:26:20.256Z,12212.00
2018-03-27T11:27:20.176Z,12336.00
2018-03-27T11:28:20.100Z,12660.00
2018-03-27T11:29:20.030Z,13160.00
2018-03-27T11:30:19.945Z,13548.00
2018-03-27T11:31:19.874Z,13740.00
2018-03-27T11:32:19.788Z,14000.00
2018-03-27T11:33:19.715Z,13020.00
2018-03-27T11:34:19.636Z,10376.00
2018-03-27T11:35:19.561Z,12208.00
2018-03-27T11:36:19.483Z,12948.00
2018-03-27T11:37:19.404Z,13428.00
2018-03-27T11:38:19.348Z,13156.00
2018-03-27T11:39:19.250Z,13488.00
2018-03-27T11:40:19.174Z,14784.00
2018-03-27T11:41:19.129Z,12860.00
2018-03-27T11:42:19.036Z,14512.00
2018-03-27T11:43:18.948Z,14776.00
2018-03-27T11:44:18.866Z,13680.00
2018-03-27T11:45:18.792Z,19552.00
2018-03-27T11:46:18.718Z,58208.00
2018-03-27T11:47:18.649Z,30560.00
2018-03-27T11:48:18.619Z,45408.00
2018-03-27T11:49:18.554Z,71616.00
2018-03-27T11:50:18.416Z,67840.00
2018-03-27T11:51:18.345Z,73216.00
2018-03-27T11:52:18.270Z,64768.00
2018-03-27T11:53:18.200Z,53440.00
2018-03-27T11:54:18.124Z,12824.00
2018-03-27T11:55:18.054Z,64032.00
2018-03-27T11:56:17.981Z,66464.00
2018-03-27T11:57:17.932Z,71296.00
2018-03-27T11:58:17.841Z,71776.00
2018-03-27T11:59:17.769Z,74080.00
2018-03-27T12:00:17.698Z,77216.00
2018-03-27T12:01:17.629Z,75904.00
2018-03-27T12:02:17.562Z,75872.00
2018-03-27T12:03:17.493Z,74240.00
2018-03-27T12:04:17.426Z,74560.00
2018-03-27T12:05:17.358Z,74944.00
2018-03-27T12:06:17.299Z,77120.00
2018-03-27T12:07:17.228Z,76960.00
2018-03-27T12:08:17.161Z,73280.00
2018-03-27T12:09:17.101Z,72000.00
2018-03-27T12:10:17.030Z,71040.00
2018-03-27T12:11:16.967Z,73696.00
2018-03-27T12:12:16.905Z,67776.00
2018-03-27T12:13:16.838Z,66912.00
2018-03-27T12:14:16.778Z,9384.00
2018-03-27T12:15:16.754Z,12744.00
2018-03-27T12:16:16.650Z,7544.00
2018-03-27T12:17:16.588Z,6576.00
2018-03-27T12:18:16.522Z,6852.00
2018-03-27T12:19:16.460Z,5628.00
2018-03-27T12:20:16.395Z,5312.00
2018-03-27T12:21:16.330Z,5124.00
2018-03-27T12:22:16.263Z,5192.00
2018-03-27T12:23:16.206Z,5388.00
2018-03-27T12:24:16.134Z,5708.00
2018-03-27T12:25:16.068Z,5928.00
2018-03-27T12:26:16.006Z,6072.00
2018-03-27T12:27:15.933Z,10340.00
2018-03-27T12:28:15.867Z,9840.00
2018-03-27T12:29:15.801Z,5284.00
2018-03-27T12:30:15.730Z,4568.00
2018-03-27T12:31:15.661Z,4704.00
2018-03-27T12:32:15.590Z,4580.00
2018-03-27T12:33:15.523Z,4200.00
2018-03-27T12:34:15.451Z,3972.00
2018-03-27T12:35:15.383Z,3692.00
2018-03-27T12:36:15.313Z,3172.00
2018-03-27T12:37:15.241Z,2568.00
2018-03-27T12:38:15.168Z,2104.00
2018-03-27T12:39:15.098Z,1856.00
2018-03-27T12:40:15.024Z,1644.00
2018-03-27T12:41:14.953Z,1460.00
2018-03-27T12:42:14.885Z,1328.00
2018-03-27T12:43:14.813Z,1264.00
2018-03-27T12:44:14.736Z,1232.00